createdAt,value
2023-03-12T00:02:17.557Z,2.50
2023-03-12T00:04:47.884Z,2.50
2023-03-12T00:07:16.460Z,2.50
2023-03-12T00:09:47.115Z,2.50
2023-03-12T00:12:17.951Z,2.40
2023-03-12T00:14:47.338Z,2.40
2023-03-12T00:17:17.970Z,2.40
2023-03-12T00:19:49.230Z,2.40
2023-03-12T00:22:20.301Z,2.40
2023-03-12T00:24:51.838Z,2.40
2023-03-12T00:27:23.156Z,2.40
2023-03-12T00:29:52.655Z,2.30
2023-03-12T00:32:22.173Z,2.40
2023-03-12T00:34:55.560Z,2.30
2023-03-12T00:37:24.990Z,2.30
2023-03-12T00:39:54.424Z,2.30
2023-03-12T00:42:24.860Z,2.30
2023-03-12T00:44:54.290Z,2.30
2023-03-12T00:47:23.801Z,2.20
2023-03-12T00:49:54.575Z,2.20
2023-03-12T00:52:25.467Z,2.20
2023-03-12T00:57:50.090Z,2.20
2023-03-12T01:00:19.828Z,2.10
2023-03-12T01:02:49.361Z,2.10
2023-03-12T01:05:18.812Z,2.10
2023-03-12T01:07:50.630Z,2.10
2023-03-12T01:13:05.588Z,2.00
2023-03-12T01:15:36.196Z,2.00
2023-03-12T01:21:19.323Z,2.00
2023-03-12T01:23:48.892Z,1.90
2023-03-12T01:26:18.949Z,1.90
2023-03-12T01:28:48.511Z,1.90
2023-03-12T01:31:19.767Z,1.90
2023-03-12T01:33:53.368Z,1.80
2023-03-12T01:36:25.999Z,1.80
2023-03-12T01:38:57.851Z,1.80
2023-03-12T01:41:29.694Z,1.80
2023-03-12T01:43:59.600Z,1.80
2023-03-12T01:46:42.624Z,1.70
2023-03-12T01:49:28.814Z,1.70
2023-03-12T01:52:05.075Z,1.70
2023-03-12T01:54:56.885Z,1.60
2023-03-12T01:57:38.103Z,1.60
2023-03-12T02:00:20.147Z,1.60
2023-03-12T02:02:51.869Z,1.50
2023-03-12T02:05:42.693Z,1.50
2023-03-12T02:08:13.109Z,1.50
2023-03-12T02:10:42.860Z,1.40
2023-03-12T02:13:12.878Z,1.40
2023-03-12T02:15:44.181Z,1.40
2023-03-12T02:18:19.033Z,1.40
2023-03-12T02:20:57.141Z,1.30
2023-03-12T02:23:29.674Z,1.30
2023-03-12T02:26:00.790Z,1.30
2023-03-12T02:28:31.007Z,1.30
2023-03-12T02:31:03.522Z,1.30
2023-03-12T02:33:33.298Z,1.30
2023-03-12T02:36:03.337Z,1.30
2023-03-12T02:38:47.678Z,1.30
2023-03-12T02:41:34.708Z,1.30
2023-03-12T02:44:19.552Z,1.30
2023-03-12T02:46:53.337Z,1.20
2023-03-12T02:49:25.285Z,1.30
2023-03-12T02:51:55.267Z,1.30
2023-03-12T02:54:25.233Z,1.30
2023-03-12T02:56:55.510Z,1.30
2023-03-12T02:59:27.120Z,1.30
2023-03-12T03:02:00.162Z,1.30
2023-03-12T03:04:31.807Z,1.30
2023-03-12T03:07:02.109Z,1.30
2023-03-12T03:09:30.833Z,1.30
2023-03-12T03:12:00.223Z,1.30
2023-03-12T03:14:30.460Z,1.30
2023-03-12T03:17:00.212Z,1.30
2023-03-12T03:19:30.409Z,1.30
2023-03-12T03:21:59.945Z,1.30
2023-03-12T03:24:29.620Z,1.30
2023-03-12T03:26:59.289Z,1.20
2023-03-12T03:29:28.721Z,1.20
2023-03-12T03:31:58.299Z,1.20
2023-03-12T03:34:27.803Z,1.20
2023-03-12T03:36:57.238Z,1.20
2023-03-12T03:39:28.601Z,1.10
2023-03-12T03:41:58.313Z,1.10
2023-03-12T03:44:28.114Z,1.00
2023-03-12T03:46:57.913Z,1.00
2023-03-12T03:49:27.418Z,1.00
2023-03-12T03:51:59.378Z,1.00
2023-03-12T03:54:31.270Z,1.00
2023-03-12T03:57:01.067Z,0.90
2023-03-12T03:59:30.866Z,0.90
2023-03-12T04:02:02.134Z,0.90
2023-03-12T04:04:51.903Z,0.90
2023-03-12T04:10:46.444Z,0.90
2023-03-12T04:13:16.046Z,0.80
2023-03-12T04:18:49.725Z,0.80
2023-03-12T04:21:32.623Z,0.80
2023-03-12T04:24:13.901Z,0.80
2023-03-12T04:27:02.691Z,0.80
2023-03-12T04:29:46.074Z,0.70
2023-03-12T04:32:25.697Z,0.70
2023-03-12T04:35:14.935Z,0.70
2023-03-12T04:37:44.413Z,0.70
2023-03-12T04:40:44.830Z,0.70
2023-03-12T04:43:14.854Z,0.70
2023-03-12T04:45:44.341Z,0.70
2023-03-12T04:48:33.913Z,0.60
2023-03-12T04:51:05.327Z,0.60
2023-03-12T04:53:35.080Z,0.60
2023-03-12T04:56:04.440Z,0.60
2023-03-12T04:58:34.414Z,0.60
2023-03-12T05:01:05.578Z,0.60
2023-03-12T05:03:35.193Z,0.50
2023-03-12T05:06:04.775Z,0.50
2023-03-12T05:08:34.215Z,0.50
2023-03-12T05:11:04.617Z,0.50
2023-03-12T05:13:34.241Z,0.50
2023-03-12T05:16:03.932Z,0.50
2023-03-12T05:18:33.478Z,0.50
2023-03-12T05:21:14.601Z,0.50
2023-03-12T05:23:44.562Z,0.50
2023-03-12T05:26:25.759Z,0.40
2023-03-12T05:28:56.847Z,0.40
2023-03-12T05:31:26.796Z,0.40
2023-03-12T05:33:56.265Z,0.40
2023-03-12T05:36:26.019Z,0.40
2023-03-12T05:38:56.374Z,0.30
2023-03-12T05:41:28.757Z,0.40
2023-03-12T05:44:00.461Z,0.30
2023-03-12T05:46:30.083Z,0.30
2023-03-12T05:48:59.392Z,0.20
2023-03-12T05:51:30.916Z,0.20
2023-03-12T05:54:00.303Z,0.20
2023-03-12T05:56:30.265Z,0.20
2023-03-12T05:58:59.789Z,0.10
2023-03-12T06:01:31.354Z,0.10
2023-03-12T06:04:02.450Z,0.10
2023-03-12T06:06:34.340Z,0.10
2023-03-12T06:09:05.554Z,0.10
2023-03-12T06:11:36.035Z,0.00
2023-03-12T06:14:06.064Z,0.00
2023-03-12T06:16:36.902Z,0.00
2023-03-12T06:19:07.545Z,0.00
2023-03-12T06:21:37.287Z,0.00
2023-03-12T06:24:08.709Z,0.00
2023-03-12T06:26:43.364Z,0.00
2023-03-12T06:29:12.754Z,0.00
2023-03-12T06:31:44.130Z,0.00
2023-03-12T06:34:13.706Z,0.00
2023-03-12T06:36:43.111Z,0.00
2023-03-12T06:39:12.485Z,0.00
2023-03-12T06:41:42.086Z,0.10
2023-03-12T06:44:11.389Z,0.10
2023-03-12T06:46:42.730Z,0.10
2023-03-12T06:49:12.671Z,0.10
2023-03-12T06:51:42.252Z,0.10
2023-03-12T06:54:11.704Z,0.20
2023-03-12T06:57:25.038Z,0.20
2023-03-12T07:03:02.755Z,0.30
2023-03-12T07:05:53.092Z,0.40
2023-03-12T07:11:14.576Z,0.40
2023-03-12T07:13:53.737Z,0.50
2023-03-12T07:16:42.524Z,0.60
2023-03-12T07:19:12.195Z,0.60
2023-03-12T07:21:42.635Z,0.70
2023-03-12T07:29:35.135Z,0.90
2023-03-12T07:32:04.695Z,1.00
2023-03-12T07:34:45.387Z,1.20
2023-03-12T07:37:16.363Z,1.30
2023-03-12T07:43:37.712Z,1.60
2023-03-12T07:46:08.322Z,1.90
2023-03-12T07:48:41.513Z,2.10
2023-03-12T07:51:11.073Z,2.20
2023-03-12T07:53:40.474Z,2.40
2023-03-12T07:56:11.122Z,2.50
2023-03-12T07:58:41.158Z,2.70
2023-03-12T08:01:10.766Z,2.80
2023-03-12T08:03:41.005Z,2.90
2023-03-12T08:06:09.852Z,2.90
2023-03-12T08:08:42.353Z,3.00
2023-03-12T08:11:12.867Z,3.00
2023-03-12T08:13:42.342Z,3.10
2023-03-12T08:16:13.393Z,3.10
2023-03-12T08:18:43.758Z,3.10
2023-03-12T08:21:16.420Z,3.20
2023-03-12T08:23:46.442Z,3.20
2023-03-12T08:26:17.556Z,3.20
2023-03-12T08:28:48.447Z,3.20
2023-03-12T08:31:17.799Z,3.30
2023-03-12T08:33:47.966Z,3.30
2023-03-12T08:36:17.292Z,3.30
2023-03-12T08:38:46.736Z,3.30
2023-03-12T08:41:16.053Z,3.40
2023-03-12T08:43:53.482Z,3.40
2023-03-12T08:46:23.877Z,3.40
2023-03-12T08:48:54.583Z,3.50
2023-03-12T08:51:25.033Z,3.50
2023-03-12T08:53:55.614Z,3.50
2023-03-12T08:56:24.963Z,3.50
2023-03-12T08:58:54.414Z,3.50
2023-03-12T09:01:23.927Z,3.60
2023-03-12T09:03:55.337Z,3.60
2023-03-12T09:06:24.687Z,3.70
2023-03-12T09:08:54.297Z,3.70
2023-03-12T09:11:23.811Z,3.80
2023-03-12T09:14:49.927Z,3.80
2023-03-12T09:16:26.376Z,3.90
2023-03-12T09:18:56.418Z,3.90
2023-03-12T09:21:27.536Z,4.00
2023-03-12T09:23:59.999Z,4.00
2023-03-12T09:26:31.563Z,4.10
2023-03-12T09:29:01.498Z,4.10
2023-03-12T09:31:31.035Z,4.20
2023-03-12T09:34:02.001Z,4.20
2023-03-12T09:36:33.447Z,4.20
2023-03-12T09:39:04.579Z,4.20
2023-03-12T09:41:39.380Z,4.30
2023-03-12T09:44:32.998Z,4.30
2023-03-12T09:47:08.696Z,4.30
2023-03-12T09:49:41.240Z,4.40
2023-03-12T09:52:31.875Z,4.50
2023-03-12T09:55:19.594Z,4.60
2023-03-12T09:57:51.859Z,4.70
2023-03-12T10:00:23.673Z,4.80
2023-03-12T10:03:13.496Z,4.90
2023-03-12T10:05:50.230Z,5.00
2023-03-12T10:08:28.582Z,5.10
